createdAt,value
2022-11-18T00:01:19.894Z,15.05
2022-11-18T00:03:47.762Z,15.23
2022-11-18T00:06:17.368Z,13.10
2022-11-18T00:08:44.934Z,12.65
2022-11-18T00:11:33.137Z,11.60
2022-11-18T00:14:19.032Z,9.88
2022-11-18T00:16:47.995Z,9.90
2022-11-18T00:19:15.982Z,10.50
2022-11-18T00:21:43.703Z,10.65
2022-11-18T00:24:11.484Z,7.50
2022-11-18T00:26:38.967Z,6.97
2022-11-18T00:29:06.553Z,8.70
2022-11-18T00:31:34.033Z,7.95
2022-11-18T00:34:01.372Z,10.32
2022-11-18T00:36:29.441Z,12.40
2022-11-18T00:38:56.874Z,9.75
2022-11-18T00:41:24.436Z,10.68
2022-11-18T00:43:51.756Z,11.75
2022-11-18T00:46:19.175Z,15.75
2022-11-18T00:48:46.518Z,6.60
2022-11-18T00:51:17.420Z,10.90
2022-11-18T00:53:45.492Z,12.18
2022-11-18T00:56:12.874Z,13.75
2022-11-18T00:58:40.303Z,9.98
2022-11-18T01:01:07.713Z,10.65
2022-11-18T01:03:35.093Z,10.13
2022-11-18T01:06:02.451Z,7.78
2022-11-18T01:08:29.934Z,7.20
2022-11-18T01:11:17.156Z,9.85
2022-11-18T01:13:44.643Z,7.07
2022-11-18T01:16:12.016Z,7.70
2022-11-18T01:18:39.394Z,10.77
2022-11-18T01:21:07.365Z,13.55
2022-11-18T01:23:34.763Z,11.13
2022-11-18T01:26:06.384Z,10.48
2022-11-18T01:28:34.033Z,8.10
2022-11-18T01:31:10.855Z,8.13
2022-11-18T01:33:38.813Z,8.00
2022-11-18T01:36:14.593Z,10.05
2022-11-18T01:38:42.095Z,9.63
2022-11-18T01:41:09.472Z,7.40
2022-11-18T01:44:04.092Z,5.43
2022-11-18T01:46:33.845Z,4.85
2022-11-18T01:49:08.253Z,7.25
2022-11-18T01:51:44.783Z,9.93
2022-11-18T01:54:29.114Z,11.43
2022-11-18T01:57:00.432Z,14.20
2022-11-18T01:59:34.113Z,12.50
2022-11-18T02:02:06.260Z,12.05
2022-11-18T02:04:34.045Z,7.25
2022-11-18T02:07:03.001Z,12.32
2022-11-18T02:09:30.673Z,10.07
2022-11-18T02:11:58.216Z,8.70
2022-11-18T02:14:46.915Z,12.27
2022-11-18T02:17:57.997Z,9.40
2022-11-18T02:20:41.651Z,10.32
2022-11-18T02:23:29.919Z,10.43
2022-11-18T02:26:03.146Z,8.15
2022-11-18T02:28:39.367Z,10.95
2022-11-18T02:31:17.692Z,9.10
2022-11-18T02:34:05.866Z,13.32
2022-11-18T02:37:07.847Z,11.82
2022-11-18T02:40:02.437Z,10.25
2022-11-18T02:42:32.648Z,9.85
2022-11-18T02:45:05.617Z,10.85
2022-11-18T02:47:35.217Z,8.65
2022-11-18T02:50:08.577Z,7.97
2022-11-18T02:52:39.228Z,10.98
2022-11-18T02:55:11.198Z,12.02
2022-11-18T02:57:40.627Z,15.10
2022-11-18T03:00:08.586Z,12.35
2022-11-18T03:02:47.929Z,14.73
2022-11-18T03:05:33.508Z,9.57
2022-11-18T03:08:10.737Z,9.40
2022-11-18T03:10:46.686Z,11.32
2022-11-18T03:13:35.777Z,12.57
2022-11-18T03:16:13.829Z,11.90
2022-11-18T03:18:52.728Z,13.30
2022-11-18T03:22:00.617Z,9.63
2022-11-18T03:24:33.247Z,7.20
2022-11-18T03:27:15.069Z,10.13
2022-11-18T03:29:49.966Z,8.63
2022-11-18T03:32:24.137Z,13.45
2022-11-18T03:34:57.968Z,11.70
2022-11-18T03:39:59.139Z,9.77
2022-11-18T03:42:37.787Z,11.10
2022-11-18T03:45:24.100Z,14.27
2022-11-18T03:48:14.468Z,14.80
2022-11-18T03:50:48.048Z,11.85
2022-11-18T03:53:17.857Z,16.10
2022-11-18T03:55:51.057Z,11.55
2022-11-18T03:58:25.627Z,17.75
2022-11-18T04:01:02.258Z,13.93
2022-11-18T04:03:29.938Z,13.18
2022-11-18T04:06:11.008Z,15.43
2022-11-18T04:08:42.688Z,13.07
2022-11-18T04:11:37.997Z,18.95
2022-11-18T04:14:08.678Z,14.88
2022-11-18T04:16:43.823Z,6.90
2022-11-18T04:19:12.069Z,8.50
2022-11-18T04:21:39.591Z,7.78
2022-11-18T04:24:07.448Z,8.98
2022-11-18T04:26:35.020Z,13.30
2022-11-18T04:29:02.617Z,13.13
2022-11-18T04:31:30.150Z,12.02
2022-11-18T04:33:57.637Z,12.55
2022-11-18T04:36:25.228Z,11.43
2022-11-18T04:38:52.787Z,10.35
2022-11-18T04:41:20.257Z,10.38
2022-11-18T04:43:47.777Z,12.23
2022-11-18T04:46:15.258Z,12.75
2022-11-18T04:48:42.777Z,8.73
2022-11-18T04:51:10.246Z,8.30
2022-11-18T04:53:37.807Z,13.88
2022-11-18T04:56:08.868Z,10.23
2022-11-18T04:58:36.357Z,10.15
2022-11-18T05:01:03.924Z,13.77
2022-11-18T05:03:31.431Z,13.18
2022-11-18T05:06:02.403Z,11.73
2022-11-18T05:08:30.007Z,13.68
2022-11-18T05:11:17.439Z,17.13
2022-11-18T05:13:45.052Z,9.00
2022-11-18T05:16:12.491Z,10.55
2022-11-18T05:18:40.012Z,7.72
2022-11-18T05:21:07.833Z,12.25
2022-11-18T05:23:35.361Z,9.40
2022-11-18T05:26:10.666Z,14.65
2022-11-18T05:28:39.041Z,12.50
2022-11-18T05:31:14.455Z,14.02
2022-11-18T05:33:42.971Z,11.48
2022-11-18T05:36:13.440Z,12.05
2022-11-18T05:38:41.591Z,16.15
2022-11-18T05:41:10.081Z,9.75
2022-11-18T05:43:37.841Z,14.18
2022-11-18T05:46:05.390Z,14.68
2022-11-18T05:48:33.011Z,11.05
2022-11-18T05:51:00.471Z,13.18
2022-11-18T05:53:28.061Z,10.05
2022-11-18T05:56:10.843Z,15.88
2022-11-18T05:58:38.411Z,16.25
2022-11-18T06:01:07.500Z,13.88
2022-11-18T06:03:40.101Z,13.63
2022-11-18T06:06:09.492Z,11.35
2022-11-18T06:08:46.021Z,12.02
2022-11-18T06:11:17.833Z,11.15
2022-11-18T06:13:52.531Z,9.88
2022-11-18T06:16:24.551Z,12.43
2022-11-18T06:18:52.240Z,15.18
2022-11-18T06:21:19.950Z,12.70
2022-11-18T06:23:47.721Z,7.32
2022-11-18T06:26:16.883Z,8.50
2022-11-18T06:28:47.251Z,8.90
2022-11-18T06:31:16.812Z,10.80
2022-11-18T06:33:44.423Z,9.20
2022-11-18T06:36:11.951Z,10.45
2022-11-18T06:38:39.511Z,9.88
2022-11-18T06:41:07.022Z,12.55
2022-11-18T06:43:42.035Z,12.77
2022-11-18T06:46:34.062Z,9.80
2022-11-18T06:49:02.601Z,10.48
2022-11-18T06:51:30.711Z,11.10
2022-11-18T06:53:58.331Z,11.10
2022-11-18T06:56:26.091Z,15.73
2022-11-18T06:58:58.564Z,10.23
2022-11-18T07:01:28.221Z,13.43
2022-11-18T07:03:57.701Z,10.02
2022-11-18T07:06:27.892Z,14.73
2022-11-18T07:08:55.833Z,8.50
2022-11-18T07:11:26.923Z,9.13
2022-11-18T07:13:54.903Z,5.40
2022-11-18T07:16:25.281Z,8.65
2022-11-18T07:18:54.572Z,11.63
2022-11-18T07:21:24.382Z,11.45
2022-11-18T07:23:52.482Z,14.23
2022-11-18T07:26:20.262Z,13.43
2022-11-18T07:28:47.931Z,8.65
2022-11-18T07:31:20.575Z,10.65
2022-11-18T07:33:48.984Z,10.73
2022-11-18T07:36:22.592Z,10.40
2022-11-18T07:38:50.993Z,11.15
2022-11-18T07:41:24.070Z,8.52
2022-11-18T07:43:56.251Z,11.30
2022-11-18T07:46:38.101Z,12.98
2022-11-18T07:49:10.400Z,13.57
2022-11-18T07:51:56.354Z,10.48
2022-11-18T07:54:23.902Z,14.13
2022-11-18T07:56:51.362Z,14.50
2022-11-18T07:59:19.041Z,9.02
2022-11-18T08:01:52.211Z,8.63
2022-11-18T08:04:22.490Z,10.68
2022-11-18T08:06:49.940Z,12.43
2022-11-18T08:09:17.553Z,14.07
2022-11-18T08:11:45.170Z,10.38
2022-11-18T08:14:12.711Z,11.23
2022-11-18T08:19:21.586Z,10.45
2022-11-18T08:21:49.045Z,17.75
2022-11-18T08:24:16.498Z,13.13
2022-11-18T08:26:45.452Z,13.98
2022-11-18T08:29:12.915Z,13.32
2022-11-18T08:31:40.986Z,14.23
2022-11-18T08:34:08.543Z,10.65
2022-11-18T08:36:37.852Z,13.05
2022-11-18T08:39:08.105Z,15.40
2022-11-18T08:41:38.886Z,11.85
2022-11-18T08:44:07.347Z,13.93
2022-11-18T08:46:34.872Z,11.05
2022-11-18T08:49:02.371Z,13.32
2022-11-18T08:51:29.845Z,13.85
2022-11-18T08:53:57.556Z,12.68
2022-11-18T08:59:08.636Z,9.57
2022-11-18T09:01:42.160Z,15.50
2022-11-18T09:06:38.666Z,14.90
2022-11-18T09:09:06.799Z,9.88
2022-11-18T09:11:34.650Z,13.98
2022-11-18T09:15:06.426Z,14.25
2022-11-18T09:16:50.565Z,11.02
2022-11-18T09:19:46.812Z,14.65
2022-11-18T09:22:06.410Z,13.15
2022-11-18T09:24:34.806Z,13.95
2022-11-18T09:27:10.788Z,16.95
2022-11-18T09:29:39.705Z,12.73
2022-11-18T09:32:07.078Z,12.73
2022-11-18T09:34:36.244Z,15.57
2022-11-18T09:37:07.057Z,11.63
2022-11-18T09:39:36.636Z,13.65
2022-11-18T09:42:37.705Z,9.40
2022-11-18T09:45:28.531Z,10.75
2022-11-18T09:48:01.707Z,10.27
2022-11-18T09:53:21.817Z,11.77
2022-11-18T09:58:35.446Z,12.63
2022-11-18T10:01:04.407Z,15.95
2022-11-18T10:03:33.850Z,11.27
2022-11-18T10:06:10.462Z,11.25
2022-11-18T10:08:49.787Z,13.98
2022-11-18T10:11:38.635Z,12.85
2022-11-18T10:14:17.615Z,14.90
2022-11-18T10:17:09.186Z,11.73
2022-11-18T10:19:53.287Z,9.35
2022-11-18T10:25:00.896Z,8.85
2022-11-18T10:30:24.387Z,10.23
2022-11-18T10:33:05.128Z,8.50
2022-11-18T10:35:36.011Z,12.70
2022-11-18T10:38:17.306Z,12.88
2022-11-18T10:41:02.591Z,13.90
2022-11-18T10:43:49.655Z,10.32
2022-11-18T10:46:19.247Z,12.25
2022-11-18T10:51:28.029Z,12.10
2022-11-18T10:54:09.328Z,11.93
2022-11-18T10:57:01.106Z,10.90
2022-11-18T10:59:41.756Z,11.57
2022-11-18T11:02:32.806Z,9.88
2022-11-18T11:05:03.948Z,11.10
2022-11-18T11:07:36.166Z,11.68
2022-11-18T11:15:35.967Z,11.23
2022-11-18T11:18:41.265Z,9.95
2022-11-18T11:21:20.194Z,11.77
2022-11-18T11:23:47.793Z,10.32
2022-11-18T11:29:34.116Z,7.93
2022-11-18T11:32:29.194Z,10.40
2022-11-18T11:35:25.344Z,11.15
2022-11-18T11:38:00.952Z,9.77
2022-11-18T11:40:38.744Z,13.90
2022-11-18T11:43:06.136Z,8.05
2022-11-18T11:46:04.095Z,8.18
2022-11-18T11:48:56.877Z,8.65
2022-11-18T11:51:48.995Z,9.10
2022-11-18T11:54:23.924Z,9.00
2022-11-18T11:57:12.664Z,11.15
2022-11-18T12:00:01.623Z,9.25
2022-11-18T12:02:59.474Z,10.10
2022-11-18T12:05:34.538Z,8.60
2022-11-18T12:08:06.532Z,9.45
2022-11-18T12:10:55.394Z,11.80
2022-11-18T12:13:27.018Z,10.70
2022-11-18T12:18:58.543Z,10.15
2022-11-18T12:21:47.556Z,11.52
2022-11-18T12:24:17.864Z,6.63
2022-11-18T12:26:50.204Z,7.82
2022-11-18T12:29:20.927Z,8.82
2022-11-18T12:31:57.394Z,10.13
2022-11-18T12:34:29.605Z,12.27
2022-11-18T12:36:57.205Z,9.32
2022-11-18T12:39:27.760Z,11.65
2022-11-18T12:42:20.704Z,10.05
2022-11-18T12:44:50.274Z,12.50
2022-11-18T12:47:42.534Z,11.30
2022-11-18T12:50:12.956Z,11.63
2022-11-18T12:52:40.336Z,8.98
2022-11-18T12:55:22.044Z,7.65
2022-11-18T13:00:32.878Z,8.63
2022-11-18T13:03:01.910Z,12.75
2022-11-18T13:05:34.670Z,8.80
2022-11-18T13:08:14.228Z,10.85
2022-11-18T13:10:50.494Z,9.77
2022-11-18T13:13:32.545Z,10.13
2022-11-18T13:16:35.518Z,12.65
2022-11-18T13:19:05.654Z,9.93
2022-11-18T13:21:51.675Z,8.68
2022-11-18T13:24:21.889Z,8.48
2022-11-18T13:26:58.270Z,13.10
2022-11-18T13:29:28.415Z,11.93
2022-11-18T13:32:13.205Z,11.13
2022-11-18T13:34:47.256Z,16.98
2022-11-18T13:40:16.978Z,11.20
2022-11-18T13:42:45.341Z,10.55
2022-11-18T13:45:14.244Z,11.60
2022-11-18T13:47:47.987Z,11.02
2022-11-18T13:53:04.855Z,15.38
2022-11-18T13:55:37.559Z,18.38
2022-11-18T13:58:23.296Z,11.80
2022-11-18T14:01:05.862Z,12.35
2022-11-18T14:03:46.565Z,9.52
2022-11-18T14:06:31.147Z,9.15
2022-11-18T14:09:27.790Z,7.45
2022-11-18T14:12:02.915Z,9.90
2022-11-18T14:14:35.074Z,8.52
2022-11-18T14:17:24.114Z,9.23
2022-11-18T14:20:07.635Z,9.82
2022-11-18T14:22:35.044Z,9.70
2022-11-18T14:25:15.907Z,8.20
2022-11-18T14:28:16.445Z,13.15
2022-11-18T14:31:18.956Z,9.10
2022-11-18T14:34:16.606Z,12.73
2022-11-18T14:36:54.176Z,13.52
2022-11-18T14:39:41.555Z,8.90
2022-11-18T14:42:18.343Z,7.28
2022-11-18T14:44:51.738Z,7.60
2022-11-18T14:47:27.494Z,7.07
2022-11-18T14:49:54.976Z,15.05
2022-11-18T14:52:22.245Z,11.23
2022-11-18T14:54:49.585Z,6.65
2022-11-18T14:57:17.705Z,9.80
2022-11-18T14:59:45.544Z,6.65
2022-11-18T15:02:15.632Z,7.18
2022-11-18T15:04:43.144Z,6.82
2022-11-18T15:07:18.564Z,5.15
2022-11-18T15:09:50.906Z,6.75
2022-11-18T15:12:18.267Z,6.63
2022-11-18T15:14:45.588Z,7.13
2022-11-18T15:17:13.888Z,10.05
2022-11-18T15:19:41.815Z,8.95
2022-11-18T15:22:09.723Z,8.88
2022-11-18T15:24:37.370Z,6.90
2022-11-18T15:27:05.763Z,7.10
2022-11-18T15:29:33.968Z,5.95
2022-11-18T15:32:01.254Z,6.32
2022-11-18T15:34:28.654Z,8.07
2022-11-18T15:36:55.934Z,7.63
2022-11-18T15:39:23.286Z,7.55
2022-11-18T15:41:50.615Z,9.07
2022-11-18T15:44:18.231Z,7.20
2022-11-18T15:46:48.219Z,7.47
2022-11-18T15:49:17.677Z,7.07
2022-11-18T15:51:45.166Z,8.57
2022-11-18T15:54:12.614Z,8.32
2022-11-18T15:56:40.134Z,6.13
2022-11-18T15:59:15.524Z,9.55
2022-11-18T16:01:49.233Z,5.68
2022-11-18T16:06:45.690Z,6.25
2022-11-18T16:09:14.426Z,7.35
2022-11-18T16:12:00.445Z,6.53
2022-11-18T16:14:28.113Z,5.47
2022-11-18T16:16:56.733Z,5.32
2022-11-18T16:19:26.705Z,7.40
2022-11-18T16:21:55.964Z,6.13
2022-11-18T16:24:28.834Z,7.40
2022-11-18T16:26:57.024Z,6.20
2022-11-18T16:29:25.202Z,4.95
2022-11-18T16:31:54.753Z,9.40
2022-11-18T16:34:27.371Z,8.93
2022-11-18T16:36:56.764Z,8.70
2022-11-18T16:39:26.352Z,6.63
2022-11-18T16:41:55.788Z,5.80
2022-11-18T16:44:23.795Z,7.00
2022-11-18T16:46:52.954Z,5.05
2022-11-18T16:49:23.363Z,4.50
2022-11-18T16:51:53.186Z,5.85
2022-11-18T16:54:25.356Z,14.32
2022-11-18T16:56:54.843Z,15.63
2022-11-18T16:59:24.163Z,19.35
2022-11-18T17:01:53.498Z,12.10
2022-11-18T17:04:21.784Z,9.98
2022-11-18T17:06:49.154Z,8.63
2022-11-18T17:09:19.760Z,9.63
2022-11-18T17:11:47.755Z,8.25
2022-11-18T17:14:15.224Z,8.43
2022-11-18T17:16:43.085Z,6.43
2022-11-18T17:19:15.123Z,8.27
2022-11-18T17:21:42.985Z,7.22
2022-11-18T17:24:12.243Z,4.72
2022-11-18T17:26:39.576Z,6.85
2022-11-18T17:29:06.874Z,7.05
2022-11-18T17:31:34.443Z,6.13
2022-11-18T17:34:01.835Z,6.70
2022-11-18T17:36:29.496Z,5.50
2022-11-18T17:38:59.291Z,11.82
2022-11-18T17:41:47.356Z,8.05
2022-11-18T17:44:16.952Z,5.95
2022-11-18T17:46:47.326Z,6.50
2022-11-18T17:49:18.946Z,5.25
2022-11-18T17:51:46.624Z,6.80
2022-11-18T17:54:14.574Z,5.32
2022-11-18T17:56:42.527Z,5.10
2022-11-18T17:59:09.793Z,6.05
2022-11-18T18:01:37.315Z,8.48
2022-11-18T18:04:05.163Z,5.63
2022-11-18T18:06:32.417Z,5.30
2022-11-18T18:08:59.990Z,6.28
2022-11-18T18:11:28.174Z,6.68
2022-11-18T18:14:14.403Z,5.47
2022-11-18T18:16:44.684Z,6.55
2022-11-18T18:19:14.553Z,7.68
2022-11-18T18:21:42.103Z,7.18
2022-11-18T18:24:10.254Z,8.98
2022-11-18T18:26:38.368Z,6.97
2022-11-18T18:29:06.024Z,6.88
2022-11-18T18:31:35.344Z,7.50
2022-11-18T18:34:03.087Z,10.23
2022-11-18T18:36:30.983Z,7.85
2022-11-18T18:38:59.333Z,5.60
2022-11-18T18:41:27.083Z,8.55
2022-11-18T18:43:54.453Z,7.38
2022-11-18T18:46:30.514Z,7.60
2022-11-18T18:49:07.336Z,5.63
2022-11-18T18:51:45.584Z,8.27
2022-11-18T18:54:15.537Z,7.78
2022-11-18T18:56:43.833Z,8.63
2022-11-18T18:59:11.444Z,11.75
2022-11-18T19:01:39.357Z,12.13
2022-11-18T19:04:08.263Z,18.63
2022-11-18T19:09:25.992Z,16.80
2022-11-18T19:12:12.395Z,11.30
2022-11-18T19:14:40.210Z,8.18
2022-11-18T19:17:11.278Z,7.57
2022-11-18T19:19:59.603Z,5.10
2022-11-18T19:22:32.920Z,5.45
2022-11-18T19:25:01.570Z,7.30
2022-11-18T19:27:32.243Z,7.15
2022-11-18T19:30:00.804Z,7.03
2022-11-18T19:33:07.233Z,9.93
2022-11-18T19:36:01.813Z,27.58
2022-11-18T19:39:01.594Z,29.33
2022-11-18T19:41:59.303Z,29.52
2022-11-18T19:44:39.566Z,21.13
2022-11-18T19:47:30.963Z,15.18
2022-11-18T19:49:58.503Z,25.13
2022-11-18T19:52:25.754Z,19.80
2022-11-18T19:54:53.014Z,23.02
2022-11-18T19:57:26.273Z,20.63
2022-11-18T19:59:53.554Z,12.63
2022-11-18T20:02:20.986Z,11.65
2022-11-18T20:05:06.564Z,11.35
2022-11-18T20:07:34.787Z,8.60
2022-11-18T20:10:02.285Z,9.73
2022-11-18T20:12:29.918Z,12.68
2022-11-18T20:14:57.423Z,12.75
2022-11-18T20:17:24.986Z,14.65
2022-11-18T20:19:52.426Z,13.75
2022-11-18T20:22:19.916Z,10.60
2022-11-18T20:24:47.336Z,11.15
2022-11-18T20:27:17.351Z,8.77
2022-11-18T20:29:45.548Z,10.63
2022-11-18T20:32:13.055Z,11.88
2022-11-18T20:34:40.695Z,13.65
2022-11-18T20:37:08.275Z,15.00
2022-11-18T20:39:35.647Z,13.57
2022-11-18T20:42:21.647Z,10.77
2022-11-18T20:44:49.186Z,11.25
2022-11-18T20:49:57.937Z,11.55
2022-11-18T20:52:25.304Z,13.80
2022-11-18T20:54:52.746Z,13.68
2022-11-18T20:57:20.207Z,14.05
2022-11-18T20:59:47.696Z,10.05
2022-11-18T21:02:15.075Z,12.25
2022-11-18T21:04:42.606Z,15.80
2022-11-18T21:07:10.253Z,12.60
2022-11-18T21:09:37.787Z,14.85
2022-11-18T21:12:05.335Z,12.13
2022-11-18T21:14:32.836Z,13.05
2022-11-18T21:17:02.916Z,19.63
2022-11-18T21:19:30.656Z,20.85
2022-11-18T21:21:58.276Z,14.98
2022-11-18T21:24:31.217Z,11.60
2022-11-18T21:26:59.795Z,17.73
2022-11-18T21:29:30.195Z,10.23
2022-11-18T21:32:00.805Z,12.10
2022-11-18T21:34:28.565Z,11.55
2022-11-18T21:36:55.946Z,11.90
2022-11-18T21:42:06.047Z,13.15
2022-11-18T21:44:33.495Z,10.77
2022-11-18T21:47:00.925Z,11.77
2022-11-18T21:49:28.405Z,10.93
2022-11-18T21:51:55.907Z,11.57
2022-11-18T21:54:23.316Z,11.70
2022-11-18T21:56:50.886Z,11.75
2022-11-18T21:59:18.832Z,10.75
2022-11-18T22:01:46.656Z,9.10
2022-11-18T22:04:34.035Z,9.57
2022-11-18T22:07:01.790Z,12.52
2022-11-18T22:09:34.658Z,8.40
2022-11-18T22:12:04.715Z,13.57
2022-11-18T22:14:32.094Z,11.60
2022-11-18T22:16:59.585Z,11.80
2022-11-18T22:19:27.013Z,13.27
2022-11-18T22:24:35.835Z,13.02
2022-11-18T22:27:08.433Z,13.95
2022-11-18T22:29:38.586Z,9.80
2022-11-18T22:32:06.056Z,11.07
2022-11-18T22:34:33.785Z,11.50
2022-11-18T22:37:01.226Z,10.40
2022-11-18T22:39:28.696Z,13.65
2022-11-18T22:42:14.645Z,11.75
2022-11-18T22:44:42.105Z,9.95
2022-11-18T22:47:09.506Z,12.43
2022-11-18T22:49:37.016Z,10.35
2022-11-18T22:52:04.506Z,10.27
2022-11-18T22:54:38.724Z,11.20
2022-11-18T22:57:06.673Z,10.45
2022-11-18T22:59:34.086Z,9.82
2022-11-18T23:02:01.993Z,9.55
2022-11-18T23:04:29.577Z,10.35
2022-11-18T23:06:57.190Z,9.40
2022-11-18T23:09:24.709Z,8.43
2022-11-18T23:12:10.688Z,8.05
2022-11-18T23:14:38.249Z,12.98
2022-11-18T23:17:06.556Z,9.63
2022-11-18T23:19:34.237Z,11.45
2022-11-18T23:22:01.716Z,9.43
2022-11-18T23:24:29.257Z,8.35
2022-11-18T23:26:56.828Z,8.98
2022-11-18T23:29:24.376Z,7.95
2022-11-18T23:31:53.037Z,9.73
2022-11-18T23:34:21.248Z,8.00
2022-11-18T23:36:48.767Z,11.13
2022-11-18T23:39:16.890Z,15.32
2022-11-18T23:41:44.659Z,70.30
2022-11-18T23:44:12.227Z,64.40
2022-11-18T23:46:39.737Z,33.90
2022-11-18T23:49:10.670Z,9.52
2022-11-18T23:51:38.167Z,7.43
2022-11-18T23:54:05.734Z,10.85
2022-11-18T23:56:37.778Z,9.70
2022-11-18T23:59:06.837Z,6.75
